Time;durP1;ratioP1;P1;durP2;ratioP2;P2;SDS_P1;SDS_P2;PMS_P1;PMS_P2;Temp;Humidity;BMP_temperature;BMP_pressure;BME280_temperature;BME280_humidity;BME280_pressure;Samples;Min_cycle;Max_cycle;Signal;HPM_P1;HPM_P2
2022/03/17 00:02:17;;;;;;;5.00;1.33;;;22.70;67.10;;;;;;5010909;28;20069;-76
2022/03/17 00:04:44;;;;;;;5.72;2.13;;;22.70;67.00;;;;;;5023214;28;20053;-79
2022/03/17 00:07:10;;;;;;;8.45;1.60;;;22.70;66.90;;;;;;5037642;28;20025;-80
2022/03/17 00:09:37;;;;;;;3.85;1.50;;;22.60;66.90;;;;;;5026163;28;20018;-76
2022/03/17 00:12:03;;;;;;;6.57;1.80;;;22.60;66.90;;;;;;5021956;28;22074;-78
2022/03/17 00:14:30;;;;;;;7.60;1.52;;;22.60;66.90;;;;;;5025490;28;20378;-78
2022/03/17 00:16:56;;;;;;;8.88;1.73;;;22.60;66.80;;;;;;5019877;28;20117;-74
2022/03/17 00:19:23;;;;;;;8.68;1.98;;;22.60;66.90;;;;;;5025263;28;20112;-74
2022/03/17 00:21:49;;;;;;;10.88;2.30;;;22.60;66.80;;;;;;5020293;28;20026;-74
2022/03/17 00:24:17;;;;;;;8.00;1.88;;;22.60;66.80;;;;;;5027213;28;20040;-73
2022/03/17 00:26:44;;;;;;;5.88;1.50;;;22.60;66.90;;;;;;5036672;28;20021;-72
2022/03/17 00:29:11;;;;;;;5.68;1.35;;;22.50;66.90;;;;;;5010680;28;20026;-75
2022/03/17 00:31:39;;;;;;;7.80;2.53;;;22.50;66.90;;;;;;5024924;28;20043;-75
2022/03/17 00:34:07;;;;;;;6.55;1.45;;;22.50;66.90;;;;;;5020040;28;20369;-73
2022/03/17 00:36:34;;;;;;;6.32;1.77;;;22.50;66.90;;;;;;5039456;28;20091;-73
2022/03/17 00:39:04;;;;;;;5.00;1.38;;;22.50;67.10;;;;;;5026414;28;20025;-76
2022/03/17 00:41:30;;;;;;;5.07;1.50;;;22.50;67.10;;;;;;5028397;28;20055;-77
2022/03/17 00:43:57;;;;;;;6.70;1.95;;;22.50;67.20;;;;;;5024544;28;20025;-75
2022/03/17 00:46:23;;;;;;;6.45;1.60;;;22.40;67.20;;;;;;5026147;28;20025;-71
2022/03/17 00:48:50;;;;;;;4.25;2.30;;;22.40;67.20;;;;;;5031278;28;20021;-72
2022/03/17 00:51:16;;;;;;;4.63;1.45;;;22.40;67.20;;;;;;5022524;28;20116;-71
2022/03/17 00:53:43;;;;;;;8.43;1.77;;;22.40;67.20;;;;;;5028447;28;20029;-74
2022/03/17 00:56:10;;;;;;;7.30;1.77;;;22.40;67.30;;;;;;5028241;28;20481;-72
2022/03/17 00:58:37;;;;;;;8.30;2.08;;;22.40;67.30;;;;;;5024821;28;20037;-75
2022/03/17 01:01:04;;;;;;;6.25;1.30;;;22.40;67.20;;;;;;5020432;28;20543;-75
2022/03/17 01:03:30;;;;;;;8.30;1.70;;;22.40;67.20;;;;;;5026039;28;20029;-72
2022/03/17 01:05:59;;;;;;;3.80;1.27;;;22.30;67.10;;;;;;5024912;28;20024;-72
2022/03/17 01:08:25;;;;;;;7.47;1.90;;;22.30;67.10;;;;;;5026097;28;20566;-77
2022/03/17 01:10:52;;;;;;;4.78;1.40;;;22.30;67.20;;;;;;5028510;28;20063;-75
2022/03/17 01:13:19;;;;;;;4.07;1.25;;;22.30;67.20;;;;;;5019373;28;20056;-73
2022/03/17 01:15:46;;;;;;;17.45;2.42;;;22.30;67.20;;;;;;5021909;28;20054;-75
2022/03/17 01:18:12;;;;;;;23.20;2.33;;;22.20;67.20;;;;;;5022945;28;20041;-73
2022/03/17 01:20:38;;;;;;;17.02;2.72;;;22.30;67.70;;;;;;5035229;28;20029;-74
2022/03/17 01:23:06;;;;;;;24.73;4.20;;;22.30;68.10;;;;;;5024612;28;20373;-78
2022/03/17 01:25:33;;;;;;;9.70;2.28;;;22.30;68.10;;;;;;5041943;28;20465;-73
2022/03/17 01:27:59;;;;;;;4.32;1.35;;;22.30;68.00;;;;;;5032237;28;20437;-73
2022/03/17 01:30:26;;;;;;;12.88;2.20;;;22.30;67.90;;;;;;5022391;28;20020;-77
2022/03/17 01:32:53;;;;;;;16.33;2.65;;;22.30;68.20;;;;;;5023203;28;20110;-72
2022/03/17 01:35:19;;;;;;;10.73;2.05;;;22.20;68.30;;;;;;5015864;28;20517;-73
2022/03/17 01:37:46;;;;;;;11.60;2.28;;;22.20;68.40;;;;;;5027504;28;20061;-74
2022/03/17 01:40:13;;;;;;;5.82;1.70;;;22.20;68.30;;;;;;5020485;28;20010;-73
2022/03/17 01:42:40;;;;;;;7.22;1.77;;;22.20;68.10;;;;;;5027425;28;20029;-73
2022/03/17 01:45:08;;;;;;;6.20;1.48;;;22.20;68.00;;;;;;5023293;28;20026;-73
2022/03/17 01:47:36;;;;;;;5.80;1.15;;;22.20;68.00;;;;;;5009512;28;21064;-74
2022/03/17 01:50:12;;;;;;;4.63;1.20;;;22.20;67.90;;;;;;5018826;28;20380;-73
2022/03/17 01:52:39;;;;;;;6.97;1.75;;;22.10;67.80;;;;;;5030623;28;20477;-73
2022/03/17 01:55:08;;;;;;;8.20;1.58;;;22.10;67.70;;;;;;5031445;28;20087;-73
2022/03/17 01:57:34;;;;;;;3.72;1.63;;;22.10;67.70;;;;;;5019705;28;20061;-75
2022/03/17 02:00:05;;;;;;;5.32;1.83;;;22.10;67.60;;;;;;5021979;28;20060;-74
2022/03/17 02:02:31;;;;;;;4.05;1.25;;;22.10;67.60;;;;;;5026615;28;20128;-74
2022/03/17 02:04:58;;;;;;;21.08;2.40;;;22.00;67.60;;;;;;5023021;28;20083;-76
2022/03/17 02:07:24;;;;;;;6.80;2.33;;;22.00;67.70;;;;;;5031990;28;20500;-72
2022/03/17 02:09:51;;;;;;;4.97;1.45;;;22.00;67.70;;;;;;5025260;28;20428;-74
2022/03/17 02:15:05;;;;;;;9.57;2.10;;;22.00;67.70;;;;;;5021934;28;20137;-72
2022/03/17 02:17:33;;;;;;;10.40;2.28;;;22.00;67.60;;;;;;5024060;28;20061;-78
2022/03/17 02:20:02;;;;;;;9.88;1.92;;;21.90;67.60;;;;;;5026812;28;20084;-72
2022/03/17 02:22:29;;;;;;;5.15;1.65;;;21.90;67.70;;;;;;5020893;28;20048;-77
2022/03/17 02:27:47;;;;;;;6.85;1.48;;;21.90;67.80;;;;;;5027238;28;20043;-80
2022/03/17 02:30:21;;;;;;;4.20;1.67;;;21.90;67.70;;;;;;5033261;28;20070;-75
2022/03/17 02:32:48;;;;;;;3.95;1.17;;;21.90;67.70;;;;;;5026660;28;20476;-79
2022/03/17 02:35:22;;;;;;;7.00;2.35;;;21.90;67.60;;;;;;5033232;28;20028;-75
2022/03/17 02:37:50;;;;;;;11.10;2.50;;;21.90;67.60;;;;;;5026265;28;20041;-74
2022/03/17 02:40:16;;;;;;;7.65;1.88;;;21.90;67.70;;;;;;5036711;28;20029;-74
2022/03/17 02:42:43;;;;;;;12.65;2.10;;;21.90;67.80;;;;;;5031265;28;20026;-74
2022/03/17 02:45:13;;;;;;;8.35;2.13;;;21.90;67.80;;;;;;5030986;28;20029;-75
2022/03/17 02:47:41;;;;;;;10.52;2.15;;;21.80;67.80;;;;;;5026328;28;20025;-75
2022/03/17 02:50:12;;;;;;;8.75;2.00;;;21.80;67.90;;;;;;5026370;28;20508;-72
2022/03/17 02:52:39;;;;;;;8.82;1.55;;;21.80;68.00;;;;;;5023668;28;20020;-78
2022/03/17 02:55:08;;;;;;;8.80;1.98;;;21.80;68.00;;;;;;5029919;28;20033;-75
2022/03/17 02:57:36;;;;;;;6.70;2.45;;;21.80;68.10;;;;;;5031247;28;20037;-77
2022/03/17 03:00:06;;;;;;;14.95;3.28;;;21.80;68.20;;;;;;5028311;28;20032;-76
2022/03/17 03:02:32;;;;;;;9.02;1.77;;;21.80;68.20;;;;;;5036666;28;20025;-72
2022/03/17 03:04:59;;;;;;;5.90;1.85;;;21.80;68.30;;;;;;5031028;28;20128;-72
2022/03/17 03:07:25;;;;;;;7.72;1.67;;;21.70;68.10;;;;;;5034882;28;20112;-74
2022/03/17 03:09:52;;;;;;;7.00;2.40;;;21.70;68.20;;;;;;5028657;28;20061;-72
2022/03/17 03:12:18;;;;;;;8.38;1.92;;;21.70;68.20;;;;;;5026468;28;20056;-75
2022/03/17 03:14:45;;;;;;;13.65;2.28;;;21.80;68.30;;;;;;5026770;28;20050;-72
2022/03/17 03:17:11;;;;;;;10.45;2.28;;;21.70;68.20;;;;;;5018914;28;20120;-76
2022/03/17 03:19:38;;;;;;;7.07;2.63;;;21.70;68.20;;;;;;5024440;28;20037;-77
2022/03/17 03:22:04;;;;;;;3.92;1.50;;;21.70;68.00;;;;;;5033788;28;20030;-74
2022/03/17 03:24:31;;;;;;;7.78;2.08;;;21.70;67.90;;;;;;5033941;28;20108;-76
2022/03/17 03:26:57;;;;;;;5.65;1.75;;;21.70;67.90;;;;;;5024972;28;20108;-75
2022/03/17 03:29:25;;;;;;;11.65;2.33;;;21.70;67.90;;;;;;5045249;28;20105;-82
2022/03/17 03:31:54;;;;;;;14.38;2.30;;;21.60;67.80;;;;;;5026874;28;20112;-76
2022/03/17 03:34:21;;;;;;;11.77;2.30;;;21.60;67.80;;;;;;5026898;28;20535;-74
2022/03/17 03:39:34;;;;;;;11.43;2.28;;;21.60;67.70;;;;;;5024826;28;20488;-74
2022/03/17 03:42:02;;;;;;;8.13;2.55;;;21.60;67.80;;;;;;5030499;28;20492;-74
2022/03/17 03:44:28;;;;;;;6.25;2.05;;;21.50;67.70;;;;;;5029160;28;20448;-78
2022/03/17 03:46:56;;;;;;;7.88;1.90;;;21.50;67.90;;;;;;5029428;28;20033;-77
2022/03/17 03:49:23;;;;;;;6.03;1.73;;;21.50;67.80;;;;;;5039029;28;20021;-79
2022/03/17 03:51:49;;;;;;;12.35;2.00;;;21.50;67.80;;;;;;5024781;28;20052;-75
2022/03/17 03:54:17;;;;;;;13.65;2.45;;;21.50;67.70;;;;;;5023769;28;20033;-76
2022/03/17 03:56:44;;;;;;;7.40;1.75;;;21.50;68.20;;;;;;5027346;28;20034;-73
2022/03/17 03:59:24;;;;;;;11.07;1.80;;;21.50;67.70;;;;;;5017569;28;20030;-74
2022/03/17 04:01:59;;;;;;;5.40;1.67;;;21.50;67.80;;;;;;5033486;28;20067;-75
2022/03/17 04:04:27;;;;;;;5.85;2.15;;;21.50;67.70;;;;;;5031087;28;20020;-73
2022/03/17 04:07:01;;;;;;;19.08;3.22;;;21.50;67.50;;;;;;5025306;28;20459;-73
2022/03/17 04:09:34;;;;;;;30.85;4.03;;;21.50;68.10;;;;;;5028630;28;20025;-73
2022/03/17 04:12:03;;;;;;;18.83;10.00;;;21.40;68.20;;;;;;5028326;28;20044;-73
2022/03/17 04:14:30;;;;;;;32.72;22.70;;;21.50;67.50;;;;;;5027216;28;20170;-74
2022/03/17 04:16:57;;;;;;;82.55;30.88;;;21.40;67.10;;;;;;5021915;28;20077;-84
2022/03/17 04:19:24;;;;;;;77.55;29.15;;;21.30;67.60;;;;;;5026407;28;20384;-75
2022/03/17 04:21:51;;;;;;;56.17;21.50;;;21.20;68.00;;;;;;5025618;28;20442;-74
2022/03/17 04:24:19;;;;;;;36.60;14.30;;;21.20;68.40;;;;;;5030081;28;20025;-74
2022/03/17 04:26:45;;;;;;;27.33;9.30;;;21.20;68.30;;;;;;5031044;28;20017;-73
2022/03/17 04:29:13;;;;;;;17.13;6.97;;;21.20;68.00;;;;;;5023582;28;20026;-76
2022/03/17 04:31:41;;;;;;;15.30;4.80;;;21.20;67.90;;;;;;5011257;28;20037;-74
2022/03/17 04:34:08;;;;;;;21.63;4.28;;;21.20;67.80;;;;;;5008598;28;20402;-75
2022/03/17 04:36:35;;;;;;;19.25;3.65;;;21.20;67.80;;;;;;5024179;28;20498;-75
2022/03/17 04:39:04;;;;;;;9.07;3.15;;;21.20;67.90;;;;;;5013002;28;20034;-77
2022/03/17 04:41:30;;;;;;;16.73;3.22;;;21.20;67.90;;;;;;5025630;28;20034;-75
2022/03/17 04:43:57;;;;;;;16.90;3.45;;;21.20;68.00;;;;;;5029095;28;20021;-71
2022/03/17 04:46:23;;;;;;;23.45;4.35;;;21.30;68.00;;;;;;5022196;28;20048;-71
2022/03/17 04:48:50;;;;;;;9.32;3.65;;;21.20;67.90;;;;;;5026098;28;20485;-74
2022/03/17 04:51:16;;;;;;;11.45;3.55;;;21.20;67.90;;;;;;5027589;28;20025;-75
2022/03/17 04:53:43;;;;;;;11.68;3.65;;;21.20;67.70;;;;;;5022599;28;20048;-72
2022/03/17 04:56:12;;;;;;;11.93;3.85;;;21.20;67.70;;;;;;5023270;28;20026;-71
2022/03/17 04:58:41;;;;;;;18.73;2.75;;;21.20;67.70;;;;;;5023248;28;20032;-72
2022/03/17 05:01:09;;;;;;;35.53;4.68;;;21.20;67.80;;;;;;5019186;28;20034;-71
2022/03/17 05:03:37;;;;;;;30.73;4.40;;;21.20;67.70;;;;;;5023702;28;20171;-77
2022/03/17 05:06:04;;;;;;;40.97;4.22;;;21.20;67.50;;;;;;5025328;28;20517;-77
2022/03/17 05:08:36;;;;;;;6.97;2.25;;;21.20;67.50;;;;;;5028570;28;20104;-77
2022/03/17 05:11:04;;;;;;;13.35;4.22;;;21.20;67.40;;;;;;5024160;28;20342;-76
2022/03/17 05:13:31;;;;;;;16.23;3.42;;;21.20;67.80;;;;;;5021962;28;20107;-76
2022/03/17 05:15:58;;;;;;;8.80;2.20;;;21.20;67.70;;;;;;5019826;28;20025;-78
2022/03/17 05:18:24;;;;;;;14.38;2.72;;;21.20;67.70;;;;;;5025449;28;20030;-76
2022/03/17 05:20:51;;;;;;;9.32;2.28;;;21.20;67.80;;;;;;5022873;28;20550;-77
2022/03/17 05:23:19;;;;;;;15.95;3.78;;;21.20;67.70;;;;;;5021591;28;20034;-73
2022/03/17 05:25:48;;;;;;;15.93;2.67;;;21.30;67.80;;;;;;5024208;28;20014;-74
2022/03/17 05:28:15;;;;;;;12.20;2.60;;;21.30;67.60;;;;;;5022706;28;20105;-73
2022/03/17 05:30:45;;;;;;;7.05;2.45;;;21.30;67.60;;;;;;5017983;28;20018;-71
2022/03/17 05:33:12;;;;;;;10.70;2.97;;;21.30;67.40;;;;;;5024284;28;20010;-73
2022/03/17 05:35:41;;;;;;;21.92;2.90;;;21.30;67.40;;;;;;5024342;28;20056;-70
2022/03/17 05:38:08;;;;;;;11.18;2.25;;;21.30;67.40;;;;;;5025327;28;20384;-71
2022/03/17 05:40:35;;;;;;;13.45;2.50;;;21.30;67.30;;;;;;5023595;28;20028;-70
2022/03/17 05:43:08;;;;;;;11.73;3.38;;;21.30;67.30;;;;;;5015923;28;20560;-71
2022/03/17 05:45:35;;;;;;;10.27;2.22;;;21.30;67.20;;;;;;5026684;28;20431;-71
2022/03/17 05:48:04;;;;;;;13.05;2.55;;;21.30;67.10;;;;;;5019218;28;20025;-71
2022/03/17 05:50:37;;;;;;;8.57;2.63;;;21.30;67.00;;;;;;5009634;28;20021;-72
2022/03/17 05:53:05;;;;;;;7.60;2.47;;;21.30;67.00;;;;;;5022743;28;20029;-71
2022/03/17 05:55:31;;;;;;;4.45;1.80;;;21.30;67.00;;;;;;5027572;28;20014;-70
2022/03/17 05:57:59;;;;;;;6.13;2.22;;;21.30;66.90;;;;;;5019902;28;20408;-70
2022/03/17 06:00:27;;;;;;;4.53;1.73;;;21.30;66.70;;;;;;5025967;28;20037;-74
2022/03/17 06:02:55;;;;;;;10.65;2.78;;;21.30;66.60;;;;;;5004986;28;20026;-70
2022/03/17 06:05:23;;;;;;;4.40;1.80;;;21.30;66.70;;;;;;5025954;28;20104;-72
2022/03/17 06:07:51;;;;;;;23.00;3.78;;;21.30;66.70;;;;;;5022138;28;20800;-70
2022/03/17 06:10:21;;;;;;;13.68;2.20;;;21.30;67.70;;;;;;5026305;28;20093;-71
2022/03/17 06:12:51;;;;;;;21.63;2.90;;;21.30;67.40;;;;;;5017812;28;20072;-71
2022/03/17 06:15:21;;;;;;;11.30;3.45;;;21.40;67.50;;;;;;5027231;28;20524;-71
2022/03/17 06:17:51;;;;;;;6.35;2.58;;;21.40;67.70;;;;;;5023736;28;20029;-72
2022/03/17 06:20:20;;;;;;;13.57;2.75;;;21.40;67.70;;;;;;5021378;28;20026;-73
2022/03/17 06:22:48;;;;;;;19.77;3.00;;;21.50;67.70;;;;;;5022832;28;20100;-70
2022/03/17 06:25:17;;;;;;;21.05;3.70;;;21.50;67.70;;;;;;5023275;28;20018;-70
2022/03/17 06:27:45;;;;;;;17.85;3.42;;;21.50;67.70;;;;;;5027457;28;20021;-72
2022/03/17 06:30:18;;;;;;;13.98;3.15;;;21.50;67.60;;;;;;4998290;28;20032;-70
2022/03/17 06:32:45;;;;;;;11.65;4.38;;;21.60;67.60;;;;;;5018275;28;20025;-70
2022/03/17 06:35:17;;;;;;;11.02;3.22;;;21.60;67.50;;;;;;5016292;28;20020;-71
2022/03/17 06:37:52;;;;;;;12.68;3.70;;;21.60;67.40;;;;;;5019547;28;20033;-70
2022/03/17 06:40:19;;;;;;;9.95;2.83;;;21.70;67.50;;;;;;5021400;28;20558;-71
2022/03/17 06:42:47;;;;;;;24.48;4.82;;;21.70;67.50;;;;;;5023294;28;20485;-71
2022/03/17 06:45:14;;;;;;;31.42;5.15;;;21.70;67.40;;;;;;5022620;28;20014;-74
2022/03/17 06:47:41;;;;;;;40.85;5.95;;;21.80;67.90;;;;;;5023091;28;20036;-73
2022/03/17 06:50:09;;;;;;;67.75;7.85;;;21.80;68.20;;;;;;5022507;28;20037;-74
2022/03/17 06:52:36;;;;;;;20.70;4.57;;;21.80;68.20;;;;;;5023568;28;20379;-72
2022/03/17 06:55:03;;;;;;;13.00;3.72;;;21.90;68.40;;;;;;5023800;28;20053;-73
2022/03/17 06:57:30;;;;;;;21.35;3.67;;;21.90;68.30;;;;;;5025469;28;20042;-72
2022/03/17 06:59:56;;;;;;;15.27;4.90;;;22.00;68.30;;;;;;5023469;28;20030;-72
2022/03/17 07:02:23;;;;;;;9.82;4.65;;;22.10;68.60;;;;;;5027453;28;20024;-73
2022/03/17 07:04:49;;;;;;;18.45;3.50;;;22.10;68.60;;;;;;5028958;28;20018;-72
2022/03/17 07:07:16;;;;;;;8.00;3.88;;;22.10;68.50;;;;;;5030659;28;20076;-73
2022/03/17 07:09:42;;;;;;;10.63;3.72;;;22.20;68.70;;;;;;5021588;28;20022;-71
2022/03/17 07:12:13;;;;;;;13.30;3.22;;;22.20;68.60;;;;;;5019821;28;20021;-74
2022/03/17 08:06:01;;;;;;;16.92;3.13;;;23.40;61.40;;;;;;6181096;22;2825297;-73
2022/03/17 08:08:28;;;;;;;9.10;2.47;;;23.50;60.30;;;;;;6281718;22;20014;-71
2022/03/17 08:10:57;;;;;;;8.73;2.58;;;23.60;59.40;;;;;;6280863;22;19991;-71
2022/03/17 08:13:25;;;;;;;15.63;3.08;;;23.70;58.30;;;;;;6281980;22;19999;-71
2022/03/17 08:15:52;;;;;;;7.55;2.47;;;23.80;57.90;;;;;;6280767;22;20003;-73
2022/03/17 08:18:19;;;;;;;16.27;2.47;;;24.00;57.80;;;;;;6281764;22;20000;-73
2022/03/17 08:20:45;;;;;;;4.05;1.73;;;24.10;56.80;;;;;;6280503;22;20027;-72
2022/03/17 08:23:16;;;;;;;5.95;2.47;;;24.20;56.60;;;;;;6281764;22;20006;-72
2022/03/17 08:25:42;;;;;;;10.68;2.95;;;24.20;56.20;;;;;;6281295;22;20004;-71
2022/03/17 08:28:08;;;;;;;9.80;3.08;;;24.30;55.50;;;;;;6281111;22;20011;-71
2022/03/17 08:30:37;;;;;;;6.28;2.60;;;24.40;54.80;;;;;;6281741;22;20006;-70
2022/03/17 08:33:03;;;;;;;7.55;2.40;;;24.50;54.70;;;;;;6280210;22;20453;-71
2022/03/17 08:35:30;;;;;;;7.78;1.90;;;24.60;54.50;;;;;;6281549;22;20027;-72
2022/03/17 08:37:57;;;;;;;16.27;3.88;;;24.80;54.60;;;;;;6280696;22;20073;-72
2022/03/17 08:40:24;;;;;;;9.48;3.05;;;24.80;54.30;;;;;;6281617;22;19995;-73
2022/03/17 08:42:50;;;;;;;5.78;2.70;;;24.90;54.30;;;;;;6280857;22;20006;-72
2022/03/17 08:50:47;;;;;;;11.13;2.38;;;25.20;52.10;;;;;;6280338;22;20128;-72
2022/03/17 08:53:14;;;;;;;11.35;3.65;;;25.30;51.70;;;;;;6281475;22;20004;-71
2022/03/17 08:55:40;;;;;;;18.08;2.45;;;25.40;50.30;;;;;;6280550;22;20072;-72
2022/03/17 08:58:07;;;;;;;7.57;1.85;;;25.50;49.80;;;;;;6277378;22;20004;-71
2022/03/17 09:00:35;;;;;;;4.25;1.45;;;25.50;48.70;;;;;;6274463;22;20004;-71
2022/03/17 09:03:05;;;;;;;8.32;2.65;;;25.60;48.40;;;;;;6273361;22;19995;-72
2022/03/17 09:05:33;;;;;;;4.30;1.92;;;25.70;48.20;;;;;;6274603;22;20011;-71
2022/03/17 09:08:00;;;;;;;5.95;2.58;;;25.80;48.40;;;;;;6273223;22;20000;-71
2022/03/17 09:10:27;;;;;;;7.53;1.45;;;25.90;47.40;;;;;;6274419;22;20002;-71
2022/03/17 09:12:57;;;;;;;6.20;2.03;;;26.00;46.80;;;;;;6273418;22;20003;-71
2022/03/17 09:15:30;;;;;;;9.82;2.30;;;26.00;47.00;;;;;;6274398;22;20449;-72
2022/03/17 09:17:57;;;;;;;5.97;1.77;;;26.10;46.60;;;;;;6274333;22;20003;-71
2022/03/17 09:20:24;;;;;;;7.30;1.77;;;26.20;46.50;;;;;;6272349;22;20057;-71
2022/03/17 09:22:52;;;;;;;3.55;1.48;;;26.30;45.60;;;;;;6274415;22;19996;-70
2022/03/17 09:25:23;;;;;;;4.15;1.50;;;26.40;44.80;;;;;;6273047;22;20000;-72
2022/03/17 09:27:51;;;;;;;7.78;2.00;;;26.50;44.70;;;;;;6274600;22;20090;-72
2022/03/17 09:30:17;;;;;;;3.70;1.60;;;26.60;45.40;;;;;;6272955;22;20003;-70
2022/03/17 09:32:45;;;;;;;6.43;1.75;;;26.70;44.20;;;;;;6273956;22;20023;-72
2022/03/17 09:35:12;;;;;;;11.50;3.42;;;26.80;43.50;;;;;;6274131;22;19996;-71
2022/03/17 09:37:40;;;;;;;3.42;1.63;;;26.90;43.20;;;;;;6273494;22;20421;-71
2022/03/17 09:40:09;;;;;;;3.47;1.58;;;26.90;42.90;;;;;;6246987;22;20373;-71
2022/03/17 09:42:36;;;;;;;3.83;1.83;;;27.00;43.80;;;;;;6272954;22;20013;-71
2022/03/17 09:45:03;;;;;;;4.60;2.38;;;27.10;43.50;;;;;;6274549;22;20007;-71
2022/03/17 09:47:35;;;;;;;2.95;1.60;;;27.20;44.00;;;;;;6273101;22;20007;-71
2022/03/17 09:50:02;;;;;;;8.18;1.92;;;27.30;43.60;;;;;;6273715;22;20006;-71
2022/03/17 09:52:31;;;;;;;8.90;1.95;;;27.30;42.30;;;;;;6273732;22;20006;-71
2022/03/17 09:54:58;;;;;;;9.82;3.20;;;27.40;42.30;;;;;;6272891;22;20359;-71
2022/03/17 09:57:25;;;;;;;3.80;2.10;;;27.40;43.20;;;;;;6274339;22;20034;-71
2022/03/17 10:00:01;;;;;;;8.40;2.83;;;27.50;42.30;;;;;;6272909;22;20003;-71
2022/03/17 10:02:28;;;;;;;7.65;3.17;;;27.50;44.00;;;;;;6273898;22;20000;-71
2022/03/17 10:04:54;;;;;;;11.75;3.35;;;27.60;45.10;;;;;;6273286;22;19995;-72
2022/03/17 10:07:21;;;;;;;5.63;3.45;;;27.70;45.40;;;;;;6273243;22;20713;-74
2022/03/17 10:09:51;;;;;;;5.00;2.00;;;27.70;45.20;;;;;;6273346;22;20000;-70
2022/03/17 10:12:23;;;;;;;5.82;2.42;;;27.80;44.60;;;;;;6272702;22;20048;-70
2022/03/17 10:14:52;;;;;;;5.90;2.95;;;27.80;43.90;;;;;;6274227;22;19996;-71
2022/03/17 10:17:34;;;;;;;10.13;3.17;;;27.90;45.20;;;;;;6272567;22;19992;-71
2022/03/17 10:20:25;;;;;;;9.38;3.00;;;28.00;45.60;;;;;;6273730;22;20004;-72
2022/03/17 10:22:57;;;;;;;12.75;3.30;;;28.00;45.80;;;;;;6273615;22;20079;-71
2022/03/17 10:25:32;;;;;;;10.13;4.05;;;28.10;45.20;;;;;;6272375;22;19999;-71
2022/03/17 10:27:59;;;;;;;8.40;2.80;;;28.10;45.20;;;;;;6246692;22;20035;-71
2022/03/17 10:30:33;;;;;;;8.68;3.33;;;28.10;44.90;;;;;;6272308;22;19999;-71
2022/03/17 10:33:15;;;;;;;8.52;3.08;;;28.20;44.80;;;;;;6273825;22;20034;-71
2022/03/17 10:35:48;;;;;;;10.70;4.45;;;28.30;44.90;;;;;;6273719;22;20004;-72
2022/03/17 10:38:19;;;;;;;8.07;2.08;;;28.30;44.00;;;;;;6272588;22;20004;-71
2022/03/17 10:41:00;;;;;;;7.78;3.25;;;28.40;44.00;;;;;;6273570;22;19995;-71
2022/03/17 10:43:29;;;;;;;9.68;4.05;;;28.50;43.70;;;;;;6272121;22;19992;-71
2022/03/17 10:46:05;;;;;;;8.35;4.03;;;28.60;44.30;;;;;;6273808;22;20012;-71
2022/03/17 10:48:32;;;;;;;5.30;3.25;;;28.60;44.40;;;;;;6273062;22;20010;-71
2022/03/17 10:50:58;;;;;;;12.30;4.70;;;28.70;44.30;;;;;;6272610;22;19988;-71
2022/03/17 10:53:30;;;;;;;12.48;5.47;;;28.80;44.30;;;;;;6273376;22;20621;-70
2022/03/17 10:56:17;;;;;;;11.13;5.03;;;28.80;43.90;;;;;;6272219;22;19999;-71
2022/03/17 10:58:44;;;;;;;13.48;5.93;;;28.90;43.60;;;;;;6273428;22;20015;-71
2022/03/17 11:01:10;;;;;;;10.40;5.00;;;28.90;43.00;;;;;;6272387;22;20003;-71
2022/03/17 11:03:38;;;;;;;12.23;5.10;;;29.00;43.50;;;;;;6273072;22;20000;-71
2022/03/17 11:06:06;;;;;;;12.98;4.78;;;29.00;43.20;;;;;;6272746;22;20046;-71
2022/03/17 11:08:33;;;;;;;13.20;5.30;;;29.10;43.20;;;;;;6272477;22;20366;-70
2022/03/17 11:11:00;;;;;;;12.80;4.70;;;29.10;43.30;;;;;;6273424;22;20421;-71
2022/03/17 11:13:26;;;;;;;15.75;4.80;;;29.20;43.30;;;;;;6271974;22;20022;-71
2022/03/17 11:16:08;;;;;;;11.38;3.45;;;29.20;43.50;;;;;;6273246;22;19996;-71
2022/03/17 11:18:39;;;;;;;10.80;3.10;;;29.30;43.30;;;;;;6272979;22;20057;-70
2022/03/17 11:21:21;;;;;;;6.85;3.63;;;29.30;42.90;;;;;;6272540;22;20045;-71
2022/03/17 11:24:06;;;;;;;10.77;2.85;;;29.40;42.90;;;;;;6273169;22;19999;-71
2022/03/17 11:26:39;;;;;;;8.70;2.80;;;29.50;42.60;;;;;;6271934;22;20085;-70
2022/03/17 11:29:09;;;;;;;6.18;3.03;;;29.50;42.60;;;;;;6273420;22;20069;-70
2022/03/17 11:31:57;;;;;;;10.98;3.20;;;29.50;42.40;;;;;;6272600;22;20027;-71
2022/03/17 11:34:41;;;;;;;7.03;2.50;;;29.50;42.20;;;;;;6272106;22;19995;-71
2022/03/17 11:37:20;;;;;;;9.57;3.00;;;29.60;41.70;;;;;;6273119;22;20659;-71
2022/03/17 11:39:58;;;;;;;10.10;2.28;;;29.60;41.20;;;;;;6272139;22;20435;-71
2022/03/17 11:42:36;;;;;;;4.97;2.30;;;29.70;41.10;;;;;;6273037;22;20004;-72
2022/03/17 11:45:10;;;;;;;5.85;2.30;;;29.80;41.10;;;;;;6272816;22;20004;-71
2022/03/17 11:47:38;;;;;;;9.23;2.90;;;29.80;40.70;;;;;;6271839;22;20589;-71
2022/03/17 11:50:27;;;;;;;6.93;1.95;;;29.90;40.50;;;;;;6273101;22;19992;-71
2022/03/17 11:52:59;;;;;;;6.32;2.17;;;30.00;40.30;;;;;;6272182;22;20495;-71
2022/03/17 12:47:20;;;;;;;7.93;2.20;;;30.80;39.60;;;;;;6051244;22;2960282;-70
2022/03/17 12:49:48;;;;;;;4.53;2.15;;;30.80;39.40;;;;;;6155446;23;20014;-72
2022/03/17 12:52:21;;;;;;;5.55;2.20;;;30.90;39.10;;;;;;6154873;23;19998;-70
2022/03/17 12:54:55;;;;;;;7.93;1.80;;;30.90;39.20;;;;;;6155707;23;20070;-70
2022/03/17 12:57:23;;;;;;;4.10;1.55;;;31.00;39.10;;;;;;6153813;23;20033;-70
2022/03/17 12:59:50;;;;;;;6.20;1.45;;;31.00;36.00;;;;;;6155458;23;20371;-70
2022/03/17 13:02:21;;;;;;;2.65;1.60;;;31.10;35.90;;;;;;6154796;23;20005;-72
2022/03/17 13:04:55;;;;;;;2.95;1.70;;;31.10;36.70;;;;;;6155484;23;20005;-70
2022/03/17 13:07:24;;;;;;;5.72;1.30;;;31.10;36.30;;;;;;6155316;23;20457;-72
2022/03/17 13:09:51;;;;;;;3.00;1.33;;;31.20;35.40;;;;;;6154600;23;20060;-70
2022/03/17 13:15:21;;;;;;;8.55;1.67;;;31.10;34.90;;;;;;6154950;23;20131;-73
2022/03/17 13:17:50;;;;;;;11.63;1.77;;;31.10;34.60;;;;;;6155090;23;20436;-71
2022/03/17 13:20:25;;;;;;;11.80;2.00;;;31.10;35.90;;;;;;6155413;23;20013;-71
2022/03/17 13:23:05;;;;;;;4.10;1.48;;;31.10;36.70;;;;;;6154387;23;20012;-70
2022/03/17 13:25:38;;;;;;;5.63;1.45;;;31.20;37.00;;;;;;6155578;23;20432;-70
2022/03/17 13:28:10;;;;;;;7.75;1.63;;;31.20;37.20;;;;;;6154846;23;20010;-70
2022/03/17 13:30:38;;;;;;;5.72;1.60;;;31.20;37.40;;;;;;6154681;23;20009;-71
2022/03/17 13:33:09;;;;;;;7.25;2.28;;;31.20;37.30;;;;;;6148595;23;19997;-72
2022/03/17 13:35:37;;;;;;;2.80;1.63;;;31.20;37.30;;;;;;6147779;23;20047;-72
2022/03/17 13:38:09;;;;;;;9.30;1.55;;;31.30;37.60;;;;;;6148994;23;19997;-71
2022/03/17 13:40:51;;;;;;;7.80;1.85;;;31.30;37.40;;;;;;6147890;23;20010;-72
2022/03/17 13:43:19;;;;;;;7.03;1.70;;;31.30;37.50;;;;;;6148836;23;20047;-73
2022/03/17 13:45:48;;;;;;;9.32;2.97;;;31.30;37.40;;;;;;6146387;23;20009;-70
2022/03/17 13:48:17;;;;;;;4.90;1.58;;;31.30;36.90;;;;;;6148228;23;20013;-74
2022/03/17 13:50:50;;;;;;;4.82;1.55;;;31.30;35.50;;;;;;6149303;23;19998;-71
2022/03/17 13:53:25;;;;;;;5.60;1.80;;;31.30;35.10;;;;;;6147538;23;20029;-70
2022/03/17 13:55:55;;;;;;;7.55;1.88;;;31.20;35.20;;;;;;6149145;23;20393;-71
2022/03/17 13:58:29;;;;;;;11.85;2.78;;;31.30;35.30;;;;;;6147408;23;20012;-72
2022/03/17 14:01:15;;;;;;;9.63;1.88;;;31.20;35.50;;;;;;6148505;23;20017;-70
2022/03/17 14:04:03;;;;;;;14.02;2.63;;;31.20;35.50;;;;;;6149210;23;20012;-70
2022/03/17 14:06:30;;;;;;;3.50;1.30;;;31.10;35.30;;;;;;6147859;23;20028;-71
2022/03/17 14:08:59;;;;;;;6.90;1.83;;;31.10;35.50;;;;;;6148768;23;20005;-71
2022/03/17 14:11:37;;;;;;;9.88;2.47;;;31.10;36.00;;;;;;6147661;23;20490;-72
2022/03/17 14:14:11;;;;;;;6.93;2.10;;;31.20;36.90;;;;;;6148320;23;20010;-71
2022/03/17 14:16:38;;;;;;;;;;;31.20;37.20;;;;;;6149160;23;20398;-72
2022/03/17 14:19:07;;;;;;;7.00;2.08;;;31.20;37.10;;;;;;6147790;23;20275;-71
2022/03/17 14:24:10;;;;;;;7.60;1.55;;;31.20;37.20;;;;;;6148802;23;20025;-69
2022/03/17 14:24:20;;;;;;;5.40;1.80;;;31.30;37.30;;;;;;6147707;22;20012;-70
2022/03/17 14:26:48;;;;;;;4.68;1.75;;;31.30;37.30;;;;;;6148514;23;20006;-70
2022/03/17 14:29:17;;;;;;;5.93;1.95;;;31.30;37.30;;;;;;6148338;23;20309;-70
2022/03/17 14:31:48;;;;;;;5.00;2.00;;;31.30;37.20;;;;;;6147807;23;20028;-70
2022/03/17 14:34:15;;;;;;;3.85;1.83;;;31.30;37.00;;;;;;6148566;23;19998;-73
2022/03/17 14:36:45;;;;;;;4.65;1.40;;;31.30;37.10;;;;;;6147386;23;20105;-71
2022/03/17 14:39:12;;;;;;;6.32;2.55;;;31.20;37.10;;;;;;6148752;23;20001;-74
2022/03/17 14:41:40;;;;;;;19.52;4.05;;;31.30;37.30;;;;;;6147282;23;20420;-70
2022/03/17 14:44:08;;;;;;;16.48;4.47;;;31.30;37.50;;;;;;6147443;23;20010;-70
2022/03/17 14:46:35;;;;;;;10.05;4.50;;;31.30;37.80;;;;;;6147905;23;20024;-69
2022/03/17 14:49:07;;;;;;;17.30;4.78;;;31.30;37.50;;;;;;6147832;23;20417;-70
2022/03/17 14:51:41;;;;;;;32.45;16.85;;;31.30;38.20;;;;;;6147524;23;20002;-88
2022/03/17 14:54:08;;;;;;;58.40;12.20;;;31.20;39.20;;;;;;6144196;23;20092;-77